sensor_id;sensor_type;location;lat;lon;timestamp;P1;durP1;ratioP1;P2;durP2;ratioP2
25443;SDS011;13368;52.346;4.678;2023-02-08T00:00:01;43.0;;;23.8;;
25443;SDS011;13368;52.346;4.678;2023-02-08T00:05:00;42.3;;;23.5;;
25443;SDS011;13368;52.346;4.678;2023-02-08T00:10:00;44.3;;;24.4;;
25443;SDS011;13368;52.346;4.678;2023-02-08T00:15:00;39.5;;;22.5;;
25443;SDS011;13368;52.346;4.678;2023-02-08T00:20:00;42.6;;;22.3;;
25443;SDS011;13368;52.346;4.678;2023-02-08T00:25:00;42.6;;;24.1;;
25443;SDS011;13368;52.346;4.678;2023-02-08T00:30:00;44.9;;;23.6;;
25443;SDS011;13368;52.346;4.678;2023-02-08T00:35:01;45.5;;;23.6;;
25443;SDS011;13368;52.346;4.678;2023-02-08T00:40:00;42.3;;;22.7;;
25443;SDS011;13368;52.346;4.678;2023-02-08T00:45:00;41.4;;;22.1;;
25443;SDS011;13368;52.346;4.678;2023-02-08T00:50:00;42.0;;;22.2;;
25443;SDS011;13368;52.346;4.678;2023-02-08T00:55:00;45.2;;;23.3;;
25443;SDS011;13368;52.346;4.678;2023-02-08T01:00:00;49.0;;;26.0;;
25443;SDS011;13368;52.346;4.678;2023-02-08T01:05:00;45.5;;;22.9;;
25443;SDS011;13368;52.346;4.678;2023-02-08T01:10:00;37.2;;;21.8;;
25443;SDS011;13368;52.346;4.678;2023-02-08T01:15:00;41.1;;;22.6;;
25443;SDS011;13368;52.346;4.678;2023-02-08T01:20:00;42.9;;;22.0;;
25443;SDS011;13368;52.346;4.678;2023-02-08T01:25:00;46.5;;;22.3;;
25443;SDS011;13368;52.346;4.678;2023-02-08T01:30:00;40.7;;;22.6;;
25443;SDS011;13368;52.346;4.678;2023-02-08T01:35:00;39.9;;;22.1;;
25443;SDS011;13368;52.346;4.678;2023-02-08T01:40:00;42.7;;;22.4;;
25443;SDS011;13368;52.346;4.678;2023-02-08T01:50:00;39.9;;;21.9;;
25443;SDS011;13368;52.346;4.678;2023-02-08T01:55:00;41.6;;;21.1;;
25443;SDS011;13368;52.346;4.678;2023-02-08T02:00:03;40.9;;;21.3;;
25443;SDS011;13368;52.346;4.678;2023-02-08T02:05:00;42.8;;;21.0;;
25443;SDS011;13368;52.346;4.678;2023-02-08T02:10:02;38.9;;;21.4;;
25443;SDS011;13368;52.346;4.678;2023-02-08T02:15:00;40.5;;;21.3;;
25443;SDS011;13368;52.346;4.678;2023-02-08T02:20:01;36.6;;;21.1;;
25443;SDS011;13368;52.346;4.678;2023-02-08T02:25:06;38.9;;;21.1;;
25443;SDS011;13368;52.346;4.678;2023-02-08T02:30:05;39.2;;;21.5;;
25443;SDS011;13368;52.346;4.678;2023-02-08T02:35:01;35.9;;;20.9;;
25443;SDS011;13368;52.346;4.678;2023-02-08T02:40:02;38.8;;;20.8;;
25443;SDS011;13368;52.346;4.678;2023-02-08T02:45:03;34.8;;;20.0;;
25443;SDS011;13368;52.346;4.678;2023-02-08T02:50:01;36.2;;;20.7;;
25443;SDS011;13368;52.346;4.678;2023-02-08T02:55:01;42.4;;;21.8;;
25443;SDS011;13368;52.346;4.678;2023-02-08T03:00:00;39.5;;;20.0;;
25443;SDS011;13368;52.346;4.678;2023-02-08T03:05:00;41.2;;;22.3;;
25443;SDS011;13368;52.346;4.678;2023-02-08T03:10:02;39.0;;;21.3;;
25443;SDS011;13368;52.346;4.678;2023-02-08T03:15:03;37.6;;;21.2;;
25443;SDS011;13368;52.346;4.678;2023-02-08T03:20:03;40.2;;;21.9;;
25443;SDS011;13368;52.346;4.678;2023-02-08T03:25:00;41.2;;;21.4;;
25443;SDS011;13368;52.346;4.678;2023-02-08T03:30:00;38.8;;;20.8;;
25443;SDS011;13368;52.346;4.678;2023-02-08T03:35:01;36.5;;;20.0;;
25443;SDS011;13368;52.346;4.678;2023-02-08T03:40:01;39.1;;;21.2;;
25443;SDS011;13368;52.346;4.678;2023-02-08T03:45:00;38.9;;;20.8;;
25443;SDS011;13368;52.346;4.678;2023-02-08T03:50:00;36.6;;;21.0;;
25443;SDS011;13368;52.346;4.678;2023-02-08T03:55:00;42.3;;;22.2;;
25443;SDS011;13368;52.346;4.678;2023-02-08T04:00:02;39.6;;;21.1;;
25443;SDS011;13368;52.346;4.678;2023-02-08T04:05:01;36.7;;;21.8;;
25443;SDS011;13368;52.346;4.678;2023-02-08T04:10:00;38.6;;;20.2;;
25443;SDS011;13368;52.346;4.678;2023-02-08T04:15:00;37.6;;;21.0;;
25443;SDS011;13368;52.346;4.678;2023-02-08T04:20:00;35.6;;;20.4;;
25443;SDS011;13368;52.346;4.678;2023-02-08T04:25:00;40.6;;;22.2;;
25443;SDS011;13368;52.346;4.678;2023-02-08T04:30:00;40.4;;;21.6;;
25443;SDS011;13368;52.346;4.678;2023-02-08T04:35:00;37.6;;;21.2;;
25443;SDS011;13368;52.346;4.678;2023-02-08T04:40:00;37.5;;;21.4;;
25443;SDS011;13368;52.346;4.678;2023-02-08T04:45:00;39.1;;;21.1;;
25443;SDS011;13368;52.346;4.678;2023-02-08T04:50:00;38.2;;;21.8;;
25443;SDS011;13368;52.346;4.678;2023-02-08T04:55:00;38.3;;;22.0;;
25443;SDS011;13368;52.346;4.678;2023-02-08T05:00:02;39.1;;;21.0;;
25443;SDS011;13368;52.346;4.678;2023-02-08T05:05:00;38.2;;;21.8;;
25443;SDS011;13368;52.346;4.678;2023-02-08T05:10:00;38.9;;;22.6;;
25443;SDS011;13368;52.346;4.678;2023-02-08T05:15:00;39.8;;;22.4;;
25443;SDS011;13368;52.346;4.678;2023-02-08T05:20:00;40.2;;;21.6;;
25443;SDS011;13368;52.346;4.678;2023-02-08T05:25:00;41.4;;;21.2;;
25443;SDS011;13368;52.346;4.678;2023-02-08T05:30:00;46.4;;;23.2;;
25443;SDS011;13368;52.346;4.678;2023-02-08T05:35:00;40.0;;;21.6;;
25443;SDS011;13368;52.346;4.678;2023-02-08T05:40:00;39.0;;;21.7;;
25443;SDS011;13368;52.346;4.678;2023-02-08T05:45:00;37.0;;;21.0;;
25443;SDS011;13368;52.346;4.678;2023-02-08T05:50:00;37.9;;;20.1;;
25443;SDS011;13368;52.346;4.678;2023-02-08T05:55:00;36.7;;;21.4;;
25443;SDS011;13368;52.346;4.678;2023-02-08T06:00:00;38.6;;;19.9;;
25443;SDS011;13368;52.346;4.678;2023-02-08T06:05:00;38.1;;;20.9;;
25443;SDS011;13368;52.346;4.678;2023-02-08T06:10:00;35.3;;;19.9;;
25443;SDS011;13368;52.346;4.678;2023-02-08T06:15:00;37.3;;;19.9;;
25443;SDS011;13368;52.346;4.678;2023-02-08T06:20:00;36.1;;;20.2;;
25443;SDS011;13368;52.346;4.678;2023-02-08T06:25:00;36.3;;;20.5;;
25443;SDS011;13368;52.346;4.678;2023-02-08T06:30:00;38.5;;;21.1;;
25443;SDS011;13368;52.346;4.678;2023-02-08T06:35:00;45.8;;;23.0;;
25443;SDS011;13368;52.346;4.678;2023-02-08T06:40:00;37.9;;;21.9;;
25443;SDS011;13368;52.346;4.678;2023-02-08T06:45:00;40.6;;;21.7;;
25443;SDS011;13368;52.346;4.678;2023-02-08T06:50:00;38.9;;;20.5;;
25443;SDS011;13368;52.346;4.678;2023-02-08T06:55:00;38.8;;;21.4;;
25443;SDS011;13368;52.346;4.678;2023-02-08T07:00:03;40.3;;;20.9;;
25443;SDS011;13368;52.346;4.678;2023-02-08T07:05:00;36.8;;;19.9;;
25443;SDS011;13368;52.346;4.678;2023-02-08T07:10:00;39.7;;;21.2;;
25443;SDS011;13368;52.346;4.678;2023-02-08T07:15:00;37.9;;;21.8;;
25443;SDS011;13368;52.346;4.678;2023-02-08T07:20:00;39.5;;;20.7;;
25443;SDS011;13368;52.346;4.678;2023-02-08T07:25:00;39.7;;;22.8;;
25443;SDS011;13368;52.346;4.678;2023-02-08T07:30:00;40.7;;;22.0;;
25443;SDS011;13368;52.346;4.678;2023-02-08T07:35:00;42.2;;;22.3;;
25443;SDS011;13368;52.346;4.678;2023-02-08T07:40:00;42.1;;;21.5;;
25443;SDS011;13368;52.346;4.678;2023-02-08T07:45:00;37.6;;;20.4;;
25443;SDS011;13368;52.346;4.678;2023-02-08T07:50:00;46.4;;;21.1;;
25443;SDS011;13368;52.346;4.678;2023-02-08T07:55:00;42.2;;;22.3;;
25443;SDS011;13368;52.346;4.678;2023-02-08T08:00:00;37.3;;;20.5;;
25443;SDS011;13368;52.346;4.678;2023-02-08T08:05:01;40.1;;;21.0;;
25443;SDS011;13368;52.346;4.678;2023-02-08T08:10:00;43.2;;;21.9;;
25443;SDS011;13368;52.346;4.678;2023-02-08T08:15:00;42.7;;;22.4;;
25443;SDS011;13368;52.346;4.678;2023-02-08T08:20:00;41.6;;;22.3;;
25443;SDS011;13368;52.346;4.678;2023-02-08T08:25:00;41.5;;;21.8;;
25443;SDS011;13368;52.346;4.678;2023-02-08T08:30:00;40.3;;;22.6;;
25443;SDS011;13368;52.346;4.678;2023-02-08T08:35:00;41.0;;;22.7;;
25443;SDS011;13368;52.346;4.678;2023-02-08T08:40:00;43.5;;;22.5;;
25443;SDS011;13368;52.346;4.678;2023-02-08T08:45:00;42.4;;;22.7;;
25443;SDS011;13368;52.346;4.678;2023-02-08T08:50:00;41.2;;;21.2;;
25443;SDS011;13368;52.346;4.678;2023-02-08T08:55:00;39.7;;;21.5;;
25443;SDS011;13368;52.346;4.678;2023-02-08T09:00:00;39.0;;;21.5;;
25443;SDS011;13368;52.346;4.678;2023-02-08T09:05:00;39.0;;;22.2;;
25443;SDS011;13368;52.346;4.678;2023-02-08T09:10:01;44.0;;;22.4;;
25443;SDS011;13368;52.346;4.678;2023-02-08T09:15:00;40.0;;;23.1;;
25443;SDS011;13368;52.346;4.678;2023-02-08T09:20:00;42.0;;;23.0;;
25443;SDS011;13368;52.346;4.678;2023-02-08T09:25:00;36.6;;;21.6;;
25443;SDS011;13368;52.346;4.678;2023-02-08T09:30:00;39.9;;;22.3;;
25443;SDS011;13368;52.346;4.678;2023-02-08T09:35:00;40.9;;;21.2;;
25443;SDS011;13368;52.346;4.678;2023-02-08T09:40:00;42.7;;;22.1;;
25443;SDS011;13368;52.346;4.678;2023-02-08T09:45:03;39.1;;;21.6;;
25443;SDS011;13368;52.346;4.678;2023-02-08T09:50:01;44.0;;;21.0;;
25443;SDS011;13368;52.346;4.678;2023-02-08T09:55:01;36.2;;;20.9;;
25443;SDS011;13368;52.346;4.678;2023-02-08T10:00:00;35.8;;;19.6;;
25443;SDS011;13368;52.346;4.678;2023-02-08T10:05:01;37.3;;;21.3;;
25443;SDS011;13368;52.346;4.678;2023-02-08T10:10:01;unavailable;;;unavailable;;
25443;SDS011;13368;52.346;4.678;2023-02-08T10:15:03;unavailable;;;unavailable;;
25443;SDS011;13368;52.346;4.678;2023-02-08T10:20:02;unavailable;;;unavailable;;
25443;SDS011;13368;52.346;4.678;2023-02-08T10:25:04;unavailable;;;unavailable;;
25443;SDS011;13368;52.346;4.678;2023-02-08T10:30:03;36.8;;;19.9;;
25443;SDS011;13368;52.346;4.678;2023-02-08T10:35:01;31.8;;;19.0;;
25443;SDS011;13368;52.346;4.678;2023-02-08T10:40:06;37.4;;;18.7;;
25443;SDS011;13368;52.346;4.678;2023-02-08T10:45:02;30.4;;;18.6;;
25443;SDS011;13368;52.346;4.678;2023-02-08T10:50:00;36.7;;;19.4;;
25443;SDS011;13368;52.346;4.678;2023-02-08T10:55:00;33.5;;;19.5;;
25443;SDS011;13368;52.346;4.678;2023-02-08T11:00:01;33.4;;;19.6;;
25443;SDS011;13368;52.346;4.678;2023-02-08T11:05:01;31.9;;;18.5;;
25443;SDS011;13368;52.346;4.678;2023-02-08T11:15:00;32.8;;;18.8;;
25443;SDS011;13368;52.346;4.678;2023-02-08T11:20:00;30.1;;;17.5;;
25443;SDS011;13368;52.346;4.678;2023-02-08T11:25:01;32.7;;;17.9;;
25443;SDS011;13368;52.346;4.678;2023-02-08T11:35:04;27.6;;;16.0;;
25443;SDS011;13368;52.346;4.678;2023-02-08T11:40:00;29.2;;;17.2;;
25443;SDS011;13368;52.346;4.678;2023-02-08T11:45:00;30.3;;;16.6;;
25443;SDS011;13368;52.346;4.678;2023-02-08T11:50:00;25.1;;;15.6;;
25443;SDS011;13368;52.346;4.678;2023-02-08T11:55:10;26.6;;;15.4;;
25443;SDS011;13368;52.346;4.678;2023-02-08T12:05:00;27.1;;;15.4;;
25443;SDS011;13368;52.346;4.678;2023-02-08T12:10:07;28.1;;;14.8;;
25443;SDS011;13368;52.346;4.678;2023-02-08T12:15:02;23.6;;;14.2;;
25443;SDS011;13368;52.346;4.678;2023-02-08T12:20:03;23.3;;;14.4;;
25443;SDS011;13368;52.346;4.678;2023-02-08T12:25:03;25.7;;;14.7;;
25443;SDS011;13368;52.346;4.678;2023-02-08T12:30:02;21.0;;;13.3;;
25443;SDS011;13368;52.346;4.678;2023-02-08T12:35:09;20.3;;;12.0;;
25443;SDS011;13368;52.346;4.678;2023-02-08T12:40:01;22.1;;;12.7;;
25443;SDS011;13368;52.346;4.678;2023-02-08T12:45:05;19.2;;;12.0;;
25443;SDS011;13368;52.346;4.678;2023-02-08T12:50:02;21.2;;;12.5;;
25443;SDS011;13368;52.346;4.678;2023-02-08T12:55:00;20.0;;;12.3;;
25443;SDS011;13368;52.346;4.678;2023-02-08T13:00:02;18.9;;;12.2;;
25443;SDS011;13368;52.346;4.678;2023-02-08T13:05:01;21.2;;;12.8;;
25443;SDS011;13368;52.346;4.678;2023-02-08T13:10:02;20.6;;;12.5;;
25443;SDS011;13368;52.346;4.678;2023-02-08T13:15:02;21.5;;;13.8;;
25443;SDS011;13368;52.346;4.678;2023-02-08T13:20:01;20.0;;;11.5;;
25443;SDS011;13368;52.346;4.678;2023-02-08T13:25:00;22.4;;;12.6;;
25443;SDS011;13368;52.346;4.678;2023-02-08T13:30:00;22.4;;;13.7;;
25443;SDS011;13368;52.346;4.678;2023-02-08T13:35:00;21.1;;;13.1;;
25443;SDS011;13368;52.346;4.678;2023-02-08T13:40:01;23.0;;;12.7;;
25443;SDS011;13368;52.346;4.678;2023-02-08T13:45:00;23.4;;;13.5;;
25443;SDS011;13368;52.346;4.678;2023-02-08T13:50:00;21.1;;;13.0;;
25443;SDS011;13368;52.346;4.678;2023-02-08T14:10:03;22.0;;;13.0;;
25443;SDS011;13368;52.346;4.678;2023-02-08T14:15:04;21.6;;;13.3;;
25443;SDS011;13368;52.346;4.678;2023-02-08T14:20:01;19.6;;;12.9;;
25443;SDS011;13368;52.346;4.678;2023-02-08T14:25:01;21.9;;;13.0;;
25443;SDS011;13368;52.346;4.678;2023-02-08T14:30:02;20.9;;;12.5;;
25443;SDS011;13368;52.346;4.678;2023-02-08T14:35:01;21.5;;;13.1;;
25443;SDS011;13368;52.346;4.678;2023-02-08T14:45:01;21.7;;;12.5;;
25443;SDS011;13368;52.346;4.678;2023-02-08T14:50:01;21.6;;;12.7;;
25443;SDS011;13368;52.346;4.678;2023-02-08T14:55:01;18.5;;;11.8;;
25443;SDS011;13368;52.346;4.678;2023-02-08T15:00:00;20.1;;;11.7;;
25443;SDS011;13368;52.346;4.678;2023-02-08T15:05:00;19.5;;;13.0;;
25443;SDS011;13368;52.346;4.678;2023-02-08T15:10:01;20.7;;;11.6;;
25443;SDS011;13368;52.346;4.678;2023-02-08T15:15:01;17.5;;;11.9;;
25443;SDS011;13368;52.346;4.678;2023-02-08T15:20:00;21.1;;;12.0;;
25443;SDS011;13368;52.346;4.678;2023-02-08T15:25:00;18.0;;;11.9;;
25443;SDS011;13368;52.346;4.678;2023-02-08T15:30:00;19.5;;;11.5;;
25443;SDS011;13368;52.346;4.678;2023-02-08T15:35:00;19.1;;;11.7;;
25443;SDS011;13368;52.346;4.678;2023-02-08T15:40:00;18.0;;;11.4;;
25443;SDS011;13368;52.346;4.678;2023-02-08T15:45:00;20.5;;;12.0;;
25443;SDS011;13368;52.346;4.678;2023-02-08T15:50:00;18.4;;;11.8;;
25443;SDS011;13368;52.346;4.678;2023-02-08T15:55:00;20.8;;;11.8;;
25443;SDS011;13368;52.346;4.678;2023-02-08T16:00:00;20.1;;;12.7;;
25443;SDS011;13368;52.346;4.678;2023-02-08T16:05:00;19.6;;;12.0;;
25443;SDS011;13368;52.346;4.678;2023-02-08T16:10:00;19.9;;;12.6;;
25443;SDS011;13368;52.346;4.678;2023-02-08T16:15:00;22.3;;;12.8;;
25443;SDS011;13368;52.346;4.678;2023-02-08T16:20:00;20.5;;;13.2;;
25443;SDS011;13368;52.346;4.678;2023-02-08T16:30:00;21.4;;;13.1;;
25443;SDS011;13368;52.346;4.678;2023-02-08T16:35:09;20.0;;;13.3;;
25443;SDS011;13368;52.346;4.678;2023-02-08T16:40:00;21.9;;;13.3;;
25443;SDS011;13368;52.346;4.678;2023-02-08T16:45:10;23.2;;;13.7;;
25443;SDS011;13368;52.346;4.678;2023-02-08T16:50:00;25.4;;;14.6;;
25443;SDS011;13368;52.346;4.678;2023-02-08T16:55:00;25.2;;;14.1;;
25443;SDS011;13368;52.346;4.678;2023-02-08T17:00:00;26.4;;;14.5;;
25443;SDS011;13368;52.346;4.678;2023-02-08T17:05:00;24.7;;;14.8;;
25443;SDS011;13368;52.346;4.678;2023-02-08T17:10:00;26.0;;;16.3;;
25443;SDS011;13368;52.346;4.678;2023-02-08T17:15:00;22.9;;;14.9;;
25443;SDS011;13368;52.346;4.678;2023-02-08T17:20:00;25.3;;;14.2;;
25443;SDS011;13368;52.346;4.678;2023-02-08T17:25:00;27.8;;;15.2;;
25443;SDS011;13368;52.346;4.678;2023-02-08T17:30:00;26.8;;;16.0;;
25443;SDS011;13368;52.346;4.678;2023-02-08T17:35:00;26.7;;;15.9;;
25443;SDS011;13368;52.346;4.678;2023-02-08T17:40:00;28.1;;;16.9;;
25443;SDS011;13368;52.346;4.678;2023-02-08T17:45:00;29.4;;;17.5;;
25443;SDS011;13368;52.346;4.678;2023-02-08T17:50:00;32.7;;;18.2;;
25443;SDS011;13368;52.346;4.678;2023-02-08T17:55:00;31.0;;;17.0;;
25443;SDS011;13368;52.346;4.678;2023-02-08T18:00:00;30.1;;;18.6;;
25443;SDS011;13368;52.346;4.678;2023-02-08T18:05:00;28.8;;;16.9;;
25443;SDS011;13368;52.346;4.678;2023-02-08T18:10:00;28.6;;;17.2;;
25443;SDS011;13368;52.346;4.678;2023-02-08T18:15:00;31.5;;;17.9;;
25443;SDS011;13368;52.346;4.678;2023-02-08T18:20:00;117.1;;;35.9;;
25443;SDS011;13368;52.346;4.678;2023-02-08T18:25:00;31.5;;;18.6;;
25443;SDS011;13368;52.346;4.678;2023-02-08T18:30:00;28.8;;;17.3;;
25443;SDS011;13368;52.346;4.678;2023-02-08T18:35:00;29.9;;;17.2;;
25443;SDS011;13368;52.346;4.678;2023-02-08T18:40:00;31.8;;;17.9;;
25443;SDS011;13368;52.346;4.678;2023-02-08T18:45:00;32.0;;;18.4;;
25443;SDS011;13368;52.346;4.678;2023-02-08T18:50:00;33.3;;;18.3;;
25443;SDS011;13368;52.346;4.678;2023-02-08T18:55:00;32.5;;;18.2;;
25443;SDS011;13368;52.346;4.678;2023-02-08T19:00:00;30.9;;;17.3;;
25443;SDS011;13368;52.346;4.678;2023-02-08T19:05:00;32.7;;;18.0;;
25443;SDS011;13368;52.346;4.678;2023-02-08T19:10:00;36.4;;;19.0;;
25443;SDS011;13368;52.346;4.678;2023-02-08T19:15:00;32.7;;;18.0;;
25443;SDS011;13368;52.346;4.678;2023-02-08T19:20:00;51.0;;;22.8;;
25443;SDS011;13368;52.346;4.678;2023-02-08T19:25:00;40.4;;;21.5;;
25443;SDS011;13368;52.346;4.678;2023-02-08T19:30:00;39.1;;;21.7;;
25443;SDS011;13368;52.346;4.678;2023-02-08T19:35:00;37.7;;;20.8;;
25443;SDS011;13368;52.346;4.678;2023-02-08T19:40:00;36.8;;;19.8;;
25443;SDS011;13368;52.346;4.678;2023-02-08T19:45:00;36.2;;;19.8;;
25443;SDS011;13368;52.346;4.678;2023-02-08T19:50:00;33.3;;;19.7;;
25443;SDS011;13368;52.346;4.678;2023-02-08T19:55:00;33.1;;;18.7;;
25443;SDS011;13368;52.346;4.678;2023-02-08T20:00:00;32.5;;;19.7;;
25443;SDS011;13368;52.346;4.678;2023-02-08T20:05:00;33.3;;;18.4;;
25443;SDS011;13368;52.346;4.678;2023-02-08T20:10:00;29.9;;;18.0;;
25443;SDS011;13368;52.346;4.678;2023-02-08T20:15:00;31.8;;;18.1;;
25443;SDS011;13368;52.346;4.678;2023-02-08T20:20:00;31.2;;;18.5;;
25443;SDS011;13368;52.346;4.678;2023-02-08T20:25:00;31.9;;;17.9;;
25443;SDS011;13368;52.346;4.678;2023-02-08T20:30:00;30.8;;;17.3;;
25443;SDS011;13368;52.346;4.678;2023-02-08T20:35:00;31.8;;;18.6;;
25443;SDS011;13368;52.346;4.678;2023-02-08T20:40:00;28.9;;;16.8;;
25443;SDS011;13368;52.346;4.678;2023-02-08T20:45:00;29.0;;;17.2;;
25443;SDS011;13368;52.346;4.678;2023-02-08T20:50:00;30.6;;;16.5;;
25443;SDS011;13368;52.346;4.678;2023-02-08T20:55:01;29.0;;;16.5;;
25443;SDS011;13368;52.346;4.678;2023-02-08T21:00:00;32.3;;;17.1;;
25443;SDS011;13368;52.346;4.678;2023-02-08T21:05:01;31.7;;;16.0;;
25443;SDS011;13368;52.346;4.678;2023-02-08T21:10:00;29.6;;;16.9;;
25443;SDS011;13368;52.346;4.678;2023-02-08T21:15:00;36.7;;;16.8;;
25443;SDS011;13368;52.346;4.678;2023-02-08T21:20:01;29.7;;;17.1;;
25443;SDS011;13368;52.346;4.678;2023-02-08T21:25:00;29.8;;;17.6;;
25443;SDS011;13368;52.346;4.678;2023-02-08T21:30:00;27.1;;;16.9;;
25443;SDS011;13368;52.346;4.678;2023-02-08T21:35:00;32.8;;;18.0;;
25443;SDS011;13368;52.346;4.678;2023-02-08T21:40:00;30.7;;;17.7;;
25443;SDS011;13368;52.346;4.678;2023-02-08T21:45:00;28.8;;;16.9;;
25443;SDS011;13368;52.346;4.678;2023-02-08T21:50:00;31.1;;;17.0;;
25443;SDS011;13368;52.346;4.678;2023-02-08T21:55:00;32.2;;;17.5;;
25443;SDS011;13368;52.346;4.678;2023-02-08T22:00:00;27.8;;;16.2;;
25443;SDS011;13368;52.346;4.678;2023-02-08T22:05:01;27.9;;;16.3;;
25443;SDS011;13368;52.346;4.678;2023-02-08T22:10:04;29.1;;;16.7;;
25443;SDS011;13368;52.346;4.678;2023-02-08T22:15:00;30.0;;;16.7;;
25443;SDS011;13368;52.346;4.678;2023-02-08T22:20:00;29.3;;;16.8;;
25443;SDS011;13368;52.346;4.678;2023-02-08T22:25:00;32.7;;;17.3;;
25443;SDS011;13368;52.346;4.678;2023-02-08T22:30:00;29.9;;;16.9;;
25443;SDS011;13368;52.346;4.678;2023-02-08T22:35:00;32.5;;;17.5;;
25443;SDS011;13368;52.346;4.678;2023-02-08T22:40:00;32.4;;;17.3;;
25443;SDS011;13368;52.346;4.678;2023-02-08T22:45:00;28.6;;;17.6;;
25443;SDS011;13368;52.346;4.678;2023-02-08T22:50:00;33.6;;;17.3;;
25443;SDS011;13368;52.346;4.678;2023-02-08T22:55:00;34.4;;;18.7;;
25443;SDS011;13368;52.346;4.678;2023-02-08T23:00:00;29.3;;;16.3;;
25443;SDS011;13368;52.346;4.678;2023-02-08T23:05:00;26.2;;;16.0;;
25443;SDS011;13368;52.346;4.678;2023-02-08T23:10:00;29.0;;;16.6;;
25443;SDS011;13368;52.346;4.678;2023-02-08T23:15:00;28.0;;;16.5;;
25443;SDS011;13368;52.346;4.678;2023-02-08T23:20:00;31.1;;;16.9;;
25443;SDS011;13368;52.346;4.678;2023-02-08T23:25:00;28.1;;;17.0;;
25443;SDS011;13368;52.346;4.678;2023-02-08T23:30:00;25.1;;;15.3;;
25443;SDS011;13368;52.346;4.678;2023-02-08T23:35:00;25.9;;;15.5;;
25443;SDS011;13368;52.346;4.678;2023-02-08T23:40:00;26.5;;;15.2;;
25443;SDS011;13368;52.346;4.678;2023-02-08T23:45:00;27.3;;;16.2;;
25443;SDS011;13368;52.346;4.678;2023-02-08T23:50:00;25.7;;;15.4;;
25443;SDS011;13368;52.346;4.678;2023-02-08T23:55:00;26.0;;;15.9;;
